createdAt,value
2019-02-27T00:01:51.747Z,98938.39
2019-02-27T00:04:58.758Z,98934.45
2019-02-27T00:08:05.361Z,98938.86
2019-02-27T00:11:12.336Z,98931.05
2019-02-27T00:14:19.939Z,98925.39
2019-02-27T00:17:26.767Z,98925.86
2019-02-27T00:20:36.689Z,98930.19
2019-02-27T00:23:41.844Z,98921.94
2019-02-27T00:26:48.144Z,98927.59
2019-02-27T00:29:54.647Z,98920.68
2019-02-27T00:33:00.887Z,98925.45
2019-02-27T00:36:12.017Z,98915.06
2019-02-27T00:39:15.757Z,98917.33
2019-02-27T00:42:23.097Z,98914.26
2019-02-27T00:45:29.955Z,98912.59
2019-02-27T00:48:36.181Z,98914.72
2019-02-27T00:51:45.414Z,98911.72
2019-02-27T00:54:52.220Z,98905.64
2019-02-27T00:57:58.604Z,98905.67
2019-02-27T01:01:05.170Z,98907.84
2019-02-27T01:04:11.661Z,98910.87
2019-02-27T01:07:20.837Z,98915.60
2019-02-27T01:10:27.718Z,98913.45
2019-02-27T01:13:34.661Z,98918.22
2019-02-27T01:16:40.973Z,98912.64
2019-02-27T01:19:47.572Z,98907.47
2019-02-27T01:22:53.925Z,98911.36
2019-02-27T01:26:00.343Z,98903.59
2019-02-27T01:29:07.043Z,98894.99
2019-02-27T01:32:13.425Z,98893.70
2019-02-27T01:35:20.378Z,98893.70
2019-02-27T01:38:27.194Z,98889.37
2019-02-27T01:41:34.248Z,98885.47
2019-02-27T01:44:44.068Z,98880.72
2019-02-27T01:47:50.718Z,98875.51
2019-02-27T01:50:57.342Z,98872.03
2019-02-27T01:54:04.153Z,98872.92
2019-02-27T01:57:10.680Z,98869.50
2019-02-27T02:00:17.914Z,98860.84
2019-02-27T02:03:24.447Z,98851.86
2019-02-27T02:06:32.375Z,98852.34
2019-02-27T02:09:40.846Z,98845.85
2019-02-27T02:12:51.225Z,98842.81
2019-02-27T02:16:20.795Z,98846.73
2019-02-27T02:19:56.172Z,98844.11
2019-02-27T02:23:41.141Z,98838.39
2019-02-27T02:27:27.975Z,98831.98
2019-02-27T02:31:04.956Z,98829.38
2019-02-27T02:34:49.527Z,98830.27
2019-02-27T02:38:14.190Z,98827.69
2019-02-27T02:41:52.889Z,98815.16
2019-02-27T02:45:19.937Z,98814.31
2019-02-27T02:49:12.084Z,98805.69
2019-02-27T02:52:51.738Z,98810.88
2019-02-27T02:56:11.729Z,98808.28
2019-02-27T02:59:47.656Z,98799.22
2019-02-27T03:03:02.336Z,98794.52
2019-02-27T03:06:57.057Z,98789.33
2019-02-27T03:10:26.995Z,98788.47
2019-02-27T03:14:17.234Z,98787.16
2019-02-27T03:18:01.662Z,98789.80
2019-02-27T03:21:48.730Z,98781.13
2019-02-27T03:25:30.158Z,98781.17
2019-02-27T03:29:16.877Z,98779.46
2019-02-27T03:32:41.322Z,98779.93
2019-02-27T03:36:08.742Z,98782.54
2019-02-27T03:39:57.675Z,98785.50
2019-02-27T03:43:53.223Z,98782.98
2019-02-27T03:47:17.750Z,98777.84
2019-02-27T03:50:52.906Z,98776.12
2019-02-27T03:54:24.367Z,98774.85
2019-02-27T03:57:57.385Z,98770.97
2019-02-27T04:01:43.621Z,98775.30
2019-02-27T04:05:16.163Z,98778.33
2019-02-27T04:08:57.129Z,98774.36
2019-02-27T04:12:03.860Z,98770.91
2019-02-27T04:15:10.263Z,98764.43
2019-02-27T04:18:14.804Z,98766.63
2019-02-27T04:21:25.230Z,98763.23
2019-02-27T04:24:30.166Z,98758.91
2019-02-27T04:27:36.752Z,98756.73
2019-02-27T04:30:43.654Z,98759.37
2019-02-27T04:33:50.130Z,98758.52
2019-02-27T04:36:56.626Z,98762.83
2019-02-27T04:40:03.542Z,98762.39
2019-02-27T04:43:10.076Z,98758.48
2019-02-27T04:46:18.903Z,98765.39
2019-02-27T04:49:26.283Z,98764.89
2019-02-27T04:52:32.582Z,98764.91
2019-02-27T04:55:38.806Z,98761.50
2019-02-27T04:58:45.640Z,98756.75
2019-02-27T05:01:52.699Z,98753.77
2019-02-27T05:04:59.285Z,98751.63
2019-02-27T05:08:05.952Z,98736.13
2019-02-27T05:11:14.229Z,98737.88
2019-02-27T05:14:21.010Z,98732.26
2019-02-27T05:17:27.716Z,98731.82
2019-02-27T05:20:34.225Z,98734.84
2019-02-27T05:23:40.995Z,98736.59
2019-02-27T05:26:48.567Z,98731.46
2019-02-27T05:29:54.980Z,98728.01
2019-02-27T05:33:02.253Z,98728.89
2019-02-27T05:36:09.503Z,98726.33
2019-02-27T05:39:17.331Z,98724.19
2019-02-27T05:42:24.915Z,98720.29
2019-02-27T05:45:32.166Z,98719.45
2019-02-27T05:48:39.033Z,98718.14
2019-02-27T05:51:45.283Z,98716.41
2019-02-27T05:54:51.869Z,98717.70
2019-02-27T05:57:58.354Z,98715.13
2019-02-27T06:01:05.864Z,98720.30
2019-02-27T06:04:14.211Z,98715.58
2019-02-27T06:07:20.954Z,98715.59
2019-02-27T06:10:27.468Z,98715.97
2019-02-27T06:13:34.578Z,98713.84
2019-02-27T06:16:41.059Z,98710.41
2019-02-27T06:19:47.940Z,98709.56
2019-02-27T06:22:54.463Z,98717.30
2019-02-27T06:26:01.173Z,98716.40
2019-02-27T06:29:08.101Z,98713.81
2019-02-27T06:32:14.743Z,98722.42
2019-02-27T06:35:21.046Z,98719.80
2019-02-27T06:38:27.771Z,98719.34
2019-02-27T06:41:35.172Z,98722.36
2019-02-27T06:44:42.004Z,98715.45
2019-02-27T06:47:48.537Z,98718.03
2019-02-27T06:50:58.259Z,98717.54
2019-02-27T06:54:03.941Z,98721.42
2019-02-27T06:57:11.036Z,98717.95
2019-02-27T07:00:18.941Z,98717.54
2019-02-27T07:03:29.242Z,98713.17
2019-02-27T07:06:36.793Z,98711.39
2019-02-27T07:09:43.213Z,98705.77
2019-02-27T07:12:54.429Z,98701.41
2019-02-27T07:16:00.032Z,98700.50
2019-02-27T07:19:06.838Z,98697.45
2019-02-27T07:22:13.111Z,98693.07
2019-02-27T07:25:19.647Z,98684.33
2019-02-27T07:28:26.465Z,98679.09
2019-02-27T07:31:33.893Z,98683.02
2019-02-27T07:34:40.765Z,98680.80
2019-02-27T07:37:48.313Z,98674.29
2019-02-27T07:40:55.368Z,98678.45
2019-02-27T07:44:02.065Z,98676.97
2019-02-27T07:47:08.858Z,98671.84
2019-02-27T07:50:16.242Z,98673.27
2019-02-27T07:53:22.847Z,98668.41
2019-02-27T07:56:29.257Z,98661.58
2019-02-27T07:59:38.243Z,98666.03
2019-02-27T08:02:44.103Z,98671.75
2019-02-27T08:05:50.960Z,98665.09
2019-02-27T08:08:57.905Z,98661.70
2019-02-27T08:12:04.903Z,98659.69
2019-02-27T08:15:13.696Z,98661.17
2019-02-27T08:18:29.568Z,98658.70
2019-02-27T08:21:29.148Z,98660.30
2019-02-27T08:24:35.696Z,98651.66
2019-02-27T08:27:43.801Z,98654.42
2019-02-27T08:30:50.830Z,98648.09
2019-02-27T08:33:57.770Z,98633.96
2019-02-27T08:37:04.654Z,98639.93
2019-02-27T08:40:11.973Z,98636.64
2019-02-27T08:43:20.321Z,98626.06
2019-02-27T08:46:26.989Z,98621.97
2019-02-27T08:49:33.752Z,98621.25
2019-02-27T08:52:41.188Z,98620.41
2019-02-27T08:55:47.424Z,98612.49
2019-02-27T08:58:53.894Z,98605.78
2019-02-27T09:02:00.384Z,98606.84
2019-02-27T09:05:07.544Z,98599.78
2019-02-27T09:08:14.280Z,98594.73
2019-02-27T09:11:22.237Z,98586.83
2019-02-27T09:14:28.908Z,98593.22
2019-02-27T09:17:35.476Z,98587.78
2019-02-27T09:20:41.784Z,98582.19
2019-02-27T09:23:48.523Z,98574.13
2019-02-27T09:26:55.101Z,98575.16
2019-02-27T09:30:02.744Z,98574.39
2019-02-27T09:33:09.935Z,98566.57
2019-02-27T09:36:16.552Z,98561.23
2019-02-27T09:39:22.835Z,98560.84
2019-02-27T09:42:29.858Z,98556.59
2019-02-27T09:45:36.535Z,98550.48
2019-02-27T09:48:42.864Z,98538.98
2019-02-27T09:51:49.492Z,98540.42
2019-02-27T09:54:56.017Z,98532.05
2019-02-27T09:58:02.607Z,98525.55
2019-02-27T10:01:14.637Z,98525.23
2019-02-27T10:04:22.444Z,98528.61
2019-02-27T10:07:29.193Z,98520.48
2019-02-27T10:10:35.870Z,98515.17
2019-02-27T10:13:42.610Z,98516.34
2019-02-27T10:16:49.027Z,98502.94
2019-02-27T10:20:01.283Z,98502.92
2019-02-27T10:23:06.605Z,98503.53
2019-02-27T10:26:13.317Z,98494.41
2019-02-27T10:29:19.664Z,98494.02
2019-02-27T10:32:26.302Z,98493.63
2019-02-27T10:35:34.760Z,98487.47
2019-02-27T10:38:41.496Z,98488.05
2019-02-27T10:41:50.557Z,98474.69
2019-02-27T10:44:56.698Z,98474.81
2019-02-27T10:48:05.155Z,98470.69
2019-02-27T10:51:11.661Z,98465.33
2019-02-27T10:54:19.511Z,98463.28
2019-02-27T10:57:31.421Z,98450.09
2019-02-27T11:00:34.357Z,98445.27
2019-02-27T11:03:41.576Z,98444.03
2019-02-27T11:06:48.972Z,98435.95
2019-02-27T11:09:55.592Z,98432.42
2019-02-27T11:13:06.787Z,98431.26
2019-02-27T11:16:11.262Z,98440.74
2019-02-27T11:19:17.818Z,98434.00
2019-02-27T11:22:24.260Z,98418.11
2019-02-27T11:25:31.145Z,98417.74
2019-02-27T11:28:37.433Z,98410.27
2019-02-27T11:31:45.460Z,98415.17
2019-02-27T11:34:53.931Z,98412.00
2019-02-27T11:38:01.797Z,98410.00
2019-02-27T11:41:08.272Z,98404.85
2019-02-27T11:44:15.329Z,98396.34
2019-02-27T11:47:22.001Z,98391.36
2019-02-27T11:50:28.674Z,98390.88
2019-02-27T11:53:35.950Z,98388.75
2019-02-27T11:56:43.074Z,98382.63
2019-02-27T11:59:49.575Z,98375.73
2019-02-27T12:02:56.093Z,98371.14
2019-02-27T12:06:02.526Z,98371.49
2019-02-27T12:09:09.286Z,98372.05
2019-02-27T12:12:16.485Z,98373.83
2019-02-27T12:15:23.447Z,98369.38
2019-02-27T12:18:32.219Z,98363.57
2019-02-27T12:21:41.495Z,98359.12
2019-02-27T12:24:50.303Z,98356.64
2019-02-27T12:27:57.438Z,98352.41
2019-02-27T12:31:04.472Z,98352.20
2019-02-27T12:34:10.990Z,98349.48
2019-02-27T12:37:27.820Z,98352.10
2019-02-27T12:40:26.967Z,98342.62
2019-02-27T12:43:33.472Z,98339.04
2019-02-27T12:46:40.063Z,98329.17
2019-02-27T12:49:46.453Z,98326.80
2019-02-27T12:52:52.936Z,98316.23
2019-02-27T12:55:59.316Z,98319.17
2019-02-27T12:59:06.381Z,98304.50
2019-02-27T13:02:13.013Z,98297.81
2019-02-27T13:05:19.680Z,98301.03
2019-02-27T13:08:26.536Z,98292.28
2019-02-27T13:11:33.312Z,98278.27
2019-02-27T13:14:40.371Z,98274.56
2019-02-27T13:17:47.540Z,98277.48
2019-02-27T13:20:54.247Z,98279.29
2019-02-27T13:24:01.128Z,98262.14
2019-02-27T13:27:09.374Z,98252.56
2019-02-27T13:30:17.893Z,98248.76
2019-02-27T13:33:25.582Z,98243.36
2019-02-27T13:36:34.127Z,98241.11
2019-02-27T13:39:40.538Z,98228.66
2019-02-27T13:42:47.354Z,98220.80
2019-02-27T13:45:53.779Z,98202.16
2019-02-27T13:49:02.943Z,98204.50
2019-02-27T13:52:12.355Z,98201.48
2019-02-27T13:55:19.131Z,98195.03
2019-02-27T13:58:25.602Z,98193.45
2019-02-27T14:01:32.979Z,98181.16
2019-02-27T14:04:39.758Z,98181.79
2019-02-27T14:07:46.791Z,98184.64
2019-02-27T14:10:53.952Z,98175.56
2019-02-27T14:14:01.447Z,98166.20
2019-02-27T14:17:08.662Z,98164.80
2019-02-27T14:20:17.306Z,98153.53
2019-02-27T14:23:24.007Z,98153.74
2019-02-27T14:26:30.758Z,98147.28
2019-02-27T14:29:37.539Z,98144.61
2019-02-27T14:32:45.046Z,98148.98
2019-02-27T14:35:52.333Z,98140.56
2019-02-27T14:38:59.365Z,98139.69
2019-02-27T14:42:06.572Z,98138.14
2019-02-27T14:45:15.160Z,98135.88
2019-02-27T14:48:22.293Z,98135.25
2019-02-27T14:51:30.118Z,98136.01
2019-02-27T14:54:36.807Z,98129.91
2019-02-27T14:57:43.960Z,98129.36
2019-02-27T15:00:51.094Z,98125.69
2019-02-27T15:04:00.387Z,98122.54
2019-02-27T15:07:06.543Z,98119.23
2019-02-27T15:10:13.313Z,98112.81
2019-02-27T15:13:20.259Z,98104.52
2019-02-27T15:16:27.452Z,98101.89
2019-02-27T15:19:35.488Z,98096.61
2019-02-27T15:22:43.307Z,98096.56
2019-02-27T15:25:49.709Z,98090.67
2019-02-27T15:28:57.124Z,98088.81
2019-02-27T15:32:03.498Z,98081.37
2019-02-27T15:35:10.455Z,98072.94
2019-02-27T15:38:17.202Z,98069.52
2019-02-27T15:41:24.760Z,98073.76
2019-02-27T15:44:34.564Z,98069.73
2019-02-27T15:47:40.166Z,98068.23
2019-02-27T15:50:46.843Z,98072.67
2019-02-27T15:53:53.466Z,98068.17
2019-02-27T15:57:00.240Z,98069.47
2019-02-27T16:00:11.926Z,98063.20
2019-02-27T16:03:18.144Z,98053.56
2019-02-27T16:06:25.603Z,98051.45
2019-02-27T16:09:32.584Z,98056.02
2019-02-27T16:12:40.199Z,98056.64
2019-02-27T16:15:48.399Z,98051.34
2019-02-27T16:18:55.307Z,98053.76
2019-02-27T16:22:02.189Z,98049.72
2019-02-27T16:25:09.915Z,98042.59
2019-02-27T16:28:18.219Z,98043.65
2019-02-27T16:31:25.382Z,98034.94
2019-02-27T16:34:33.131Z,98039.80
2019-02-27T16:37:40.834Z,98038.34
2019-02-27T16:40:52.075Z,98034.47
2019-02-27T16:43:55.685Z,98037.48
2019-02-27T16:47:03.577Z,98036.19
2019-02-27T16:50:13.592Z,98041.50
2019-02-27T16:53:20.115Z,98044.73
2019-02-27T16:56:27.216Z,98049.27
2019-02-27T16:59:34.019Z,98051.95
2019-02-27T17:02:40.566Z,98048.06
2019-02-27T17:05:47.336Z,98049.89
2019-02-27T17:08:54.465Z,98059.72
2019-02-27T17:12:04.317Z,98053.81
2019-02-27T17:15:10.874Z,98055.81
2019-02-27T17:18:18.261Z,98055.20
2019-02-27T17:21:26.156Z,98056.77
2019-02-27T17:24:32.801Z,98053.22
2019-02-27T17:27:41.305Z,98052.03
2019-02-27T17:30:48.980Z,98051.06
2019-02-27T17:33:56.209Z,98048.06
2019-02-27T17:37:03.529Z,98051.00
2019-02-27T17:40:11.969Z,98048.98
2019-02-27T17:43:18.445Z,98048.69
2019-02-27T17:46:24.896Z,98051.84
2019-02-27T17:49:31.535Z,98049.87
2019-02-27T17:52:38.143Z,98051.48
2019-02-27T17:55:45.060Z,98044.43
2019-02-27T17:58:51.635Z,98041.63
2019-02-27T18:01:59.349Z,98028.93
2019-02-27T18:05:06.664Z,98032.86
2019-02-27T18:08:16.294Z,98029.69
2019-02-27T18:11:22.950Z,98022.90
2019-02-27T18:14:29.876Z,98022.16
2019-02-27T18:17:36.761Z,98020.30
2019-02-27T18:20:44.641Z,98010.98
2019-02-27T18:23:51.155Z,98004.84
2019-02-27T18:26:57.912Z,97996.84
2019-02-27T18:30:06.370Z,97995.81
2019-02-27T18:33:14.364Z,97984.62
2019-02-27T18:36:21.905Z,97978.73
2019-02-27T18:39:29.284Z,97972.92
2019-02-27T18:42:35.793Z,97974.72
2019-02-27T18:45:42.450Z,97969.40
2019-02-27T18:48:49.124Z,97964.92
2019-02-27T18:51:55.765Z,97958.48
2019-02-27T18:55:05.887Z,97957.50
2019-02-27T18:58:12.816Z,97946.25
2019-02-27T19:01:20.045Z,97948.88
2019-02-27T19:04:27.125Z,97943.55
2019-02-27T19:07:33.655Z,97937.02
2019-02-27T19:10:42.553Z,97929.91
2019-02-27T19:13:49.829Z,97924.81
2019-02-27T19:16:57.304Z,97919.52
2019-02-27T19:20:03.774Z,97920.00
2019-02-27T19:23:10.806Z,97911.36
2019-02-27T19:26:18.282Z,97908.83
2019-02-27T19:29:25.799Z,97909.77
2019-02-27T19:32:32.597Z,97906.02
2019-02-27T19:35:39.673Z,97905.55
2019-02-27T19:38:47.716Z,97896.77
2019-02-27T19:41:55.512Z,97891.73
2019-02-27T19:45:04.377Z,97890.53
2019-02-27T19:48:11.161Z,97884.30
2019-02-27T19:51:21.448Z,97877.08
2019-02-27T19:54:29.006Z,97880.55
2019-02-27T19:57:39.275Z,97871.07
2019-02-27T20:00:48.434Z,97868.33
2019-02-27T20:03:54.148Z,97860.05
2019-02-27T20:07:01.799Z,97855.75
2019-02-27T20:10:11.091Z,97848.68
2019-02-27T20:13:20.862Z,97841.11
2019-02-27T20:16:28.026Z,97836.36
2019-02-27T20:19:35.360Z,97836.69
2019-02-27T20:22:44.641Z,97830.17
2019-02-27T20:25:52.432Z,97829.53
2019-02-27T20:29:04.259Z,97815.63
2019-02-27T20:32:09.529Z,97818.44
2019-02-27T20:35:20.798Z,97814.17
2019-02-27T20:38:28.688Z,97821.37
2019-02-27T20:41:40.916Z,97812.50
2019-02-27T20:44:49.934Z,97807.30
2019-02-27T20:48:01.482Z,97804.06
2019-02-27T20:51:06.903Z,97793.17
2019-02-27T20:54:13.911Z,97794.97
2019-02-27T20:57:20.812Z,97782.44
2019-02-27T21:00:27.813Z,97780.36
2019-02-27T21:03:34.665Z,97771.06
2019-02-27T21:06:47.246Z,97771.75
2019-02-27T21:09:50.978Z,97771.40
2019-02-27T21:12:58.107Z,97767.66
2019-02-27T21:16:09.315Z,97766.66
2019-02-27T21:19:16.567Z,97765.00
2019-02-27T21:22:25.228Z,97758.14
2019-02-27T21:25:32.445Z,97758.23
2019-02-27T21:28:38.823Z,97759.44
2019-02-27T21:31:47.457Z,97750.23
2019-02-27T21:34:55.043Z,97750.63
2019-02-27T21:38:03.336Z,97749.97
2019-02-27T21:41:13.950Z,97737.58
2019-02-27T21:44:25.430Z,97741.52
2019-02-27T21:47:29.785Z,97734.52
2019-02-27T21:50:39.624Z,97729.87
2019-02-27T21:53:45.956Z,97733.70
2019-02-27T21:56:55.171Z,97730.53
2019-02-27T22:00:02.373Z,97718.86
2019-02-27T22:03:10.673Z,97709.98
2019-02-27T22:06:17.594Z,97702.58
2019-02-27T22:09:24.697Z,97700.92
2019-02-27T22:12:32.367Z,97693.40
2019-02-27T22:15:40.765Z,97684.64
2019-02-27T22:18:47.950Z,97689.02
2019-02-27T22:21:55.044Z,97687.99
2019-02-27T22:25:02.585Z,97687.19
2019-02-27T22:28:10.799Z,97682.63
2019-02-27T22:31:17.826Z,97673.42
2019-02-27T22:34:24.287Z,97664.84
2019-02-27T22:37:30.904Z,97663.27
2019-02-27T22:40:39.092Z,97671.41
2019-02-27T22:43:46.457Z,97665.27
2019-02-27T22:46:53.267Z,97659.15
2019-02-27T22:49:59.940Z,97651.16
2019-02-27T22:53:06.578Z,97642.09
2019-02-27T22:56:15.798Z,97639.40
2019-02-27T22:59:23.103Z,97641.05
2019-02-27T23:02:30.181Z,97634.27
2019-02-27T23:05:38.194Z,97636.97
2019-02-27T23:08:46.372Z,97640.63
2019-02-27T23:11:53.820Z,97630.28
2019-02-27T23:15:00.679Z,97629.61
2019-02-27T23:18:07.368Z,97627.64
2019-02-27T23:21:14.297Z,97627.45
2019-02-27T23:24:20.791Z,97622.77
2019-02-27T23:27:27.760Z,97625.80
2019-02-27T23:30:35.090Z,97623.08
2019-02-27T23:33:42.966Z,97615.04
2019-02-27T23:36:49.752Z,97608.52
2019-02-27T23:39:56.646Z,97608.53
2019-02-27T23:43:04.641Z,97606.23
2019-02-27T23:46:11.085Z,97601.02
2019-02-27T23:49:17.618Z,97591.78
2019-02-27T23:52:24.662Z,97595.19
2019-02-27T23:55:31.185Z,97589.48
2019-02-27T23:58:37.696Z,97588.86
